sensor_id;sensor_type;location;lat;lon;timestamp;pressure;altitude;pressure_sealevel;temperature;humidity
40954;BME280;26686;50.130;8.710;2022-11-21T00:00:34;99037.91;;;6.32;91.45
40954;BME280;26686;50.130;8.710;2022-11-21T00:05:42;99035.28;;;6.32;91.88
40954;BME280;26686;50.130;8.710;2022-11-21T00:10:44;99023.50;;;6.36;90.85
40954;BME280;26686;50.130;8.710;2022-11-21T00:15:47;99027.59;;;6.29;90.92
40954;BME280;26686;50.130;8.710;2022-11-21T00:20:48;99022.75;;;6.34;89.94
40954;BME280;26686;50.130;8.710;2022-11-21T00:25:49;99014.84;;;6.34;89.12
40954;BME280;26686;50.130;8.710;2022-11-21T00:30:51;99015.31;;;6.40;88.99
40954;BME280;26686;50.130;8.710;2022-11-21T00:35:52;99010.50;;;6.33;87.85
40954;BME280;26686;50.130;8.710;2022-11-21T00:40:53;99020.13;;;6.34;87.97
40954;BME280;26686;50.130;8.710;2022-11-21T00:45:55;99019.41;;;6.32;87.86
40954;BME280;26686;50.130;8.710;2022-11-21T00:50:56;99018.06;;;6.38;88.00
40954;BME280;26686;50.130;8.710;2022-11-21T00:55:57;99021.03;;;6.45;87.31
40954;BME280;26686;50.130;8.710;2022-11-21T01:01:08;99019.56;;;6.52;87.07
40954;BME280;26686;50.130;8.710;2022-11-21T01:06:12;99014.66;;;6.47;87.00
40954;BME280;26686;50.130;8.710;2022-11-21T01:11:16;99010.16;;;6.38;87.32
40954;BME280;26686;50.130;8.710;2022-11-21T01:16:20;99003.88;;;6.39;87.15
40954;BME280;26686;50.130;8.710;2022-11-21T01:21:23;99013.25;;;6.43;87.31
40954;BME280;26686;50.130;8.710;2022-11-21T01:26:28;99016.31;;;6.48;86.53
40954;BME280;26686;50.130;8.710;2022-11-21T01:31:30;99014.41;;;6.50;86.67
40954;BME280;26686;50.130;8.710;2022-11-21T01:36:32;99012.94;;;6.58;86.80
40954;BME280;26686;50.130;8.710;2022-11-21T01:41:37;99013.94;;;6.66;86.29
40954;BME280;26686;50.130;8.710;2022-11-21T01:46:38;98991.69;;;6.48;86.35
40954;BME280;26686;50.130;8.710;2022-11-21T01:51:48;99002.22;;;6.59;87.23
40954;BME280;26686;50.130;8.710;2022-11-21T01:56:58;98997.91;;;6.58;86.44
40954;BME280;26686;50.130;8.710;2022-11-21T02:02:02;98985.47;;;6.49;86.41
40954;BME280;26686;50.130;8.710;2022-11-21T02:07:05;98999.59;;;6.59;86.84
40954;BME280;26686;50.130;8.710;2022-11-21T02:12:13;98993.56;;;6.57;87.08
40954;BME280;26686;50.130;8.710;2022-11-21T02:17:17;99000.41;;;6.60;87.79
40954;BME280;26686;50.130;8.710;2022-11-21T02:27:26;99003.72;;;6.52;88.79
40954;BME280;26686;50.130;8.710;2022-11-21T02:32:34;99011.63;;;6.52;88.78
40954;BME280;26686;50.130;8.710;2022-11-21T02:37:36;99003.50;;;6.44;88.75
40954;BME280;26686;50.130;8.710;2022-11-21T02:48:00;99017.50;;;6.55;89.66
40954;BME280;26686;50.130;8.710;2022-11-21T02:53:07;99025.56;;;6.54;89.76
40954;BME280;26686;50.130;8.710;2022-11-21T02:58:09;99028.66;;;6.59;89.17
40954;BME280;26686;50.130;8.710;2022-11-21T03:03:10;99039.00;;;6.62;88.58
40954;BME280;26686;50.130;8.710;2022-11-21T03:08:12;99031.59;;;6.77;87.59
40954;BME280;26686;50.130;8.710;2022-11-21T03:13:13;99032.72;;;6.84;87.29
40954;BME280;26686;50.130;8.710;2022-11-21T03:18:14;99044.59;;;6.90;87.01
40954;BME280;26686;50.130;8.710;2022-11-21T03:23:16;99037.19;;;6.84;85.85
40954;BME280;26686;50.130;8.710;2022-11-21T03:28:17;99041.78;;;6.82;86.33
40954;BME280;26686;50.130;8.710;2022-11-21T03:33:18;99039.66;;;6.76;86.47
40954;BME280;26686;50.130;8.710;2022-11-21T03:38:20;99038.78;;;6.75;86.32
40954;BME280;26686;50.130;8.710;2022-11-21T03:43:21;99037.56;;;6.79;85.94
40954;BME280;26686;50.130;8.710;2022-11-21T03:48:22;99045.75;;;6.76;85.50
40954;BME280;26686;50.130;8.710;2022-11-21T03:53:24;99053.03;;;6.84;85.64
40954;BME280;26686;50.130;8.710;2022-11-21T03:58:25;99040.91;;;6.81;85.49
40954;BME280;26686;50.130;8.710;2022-11-21T04:03:26;99044.84;;;6.87;84.88
40954;BME280;26686;50.130;8.710;2022-11-21T04:08:28;99047.25;;;6.90;84.65
40954;BME280;26686;50.130;8.710;2022-11-21T04:13:29;99044.03;;;6.86;84.82
40954;BME280;26686;50.130;8.710;2022-11-21T04:18:32;99053.81;;;6.96;85.10
40954;BME280;26686;50.130;8.710;2022-11-21T04:23:34;99057.16;;;6.98;84.77
40954;BME280;26686;50.130;8.710;2022-11-21T04:28:36;99055.69;;;7.05;84.19
40954;BME280;26686;50.130;8.710;2022-11-21T04:33:38;99055.03;;;7.13;83.85
40954;BME280;26686;50.130;8.710;2022-11-21T04:38:39;99058.41;;;7.15;82.92
40954;BME280;26686;50.130;8.710;2022-11-21T04:43:41;99052.13;;;7.16;82.88
40954;BME280;26686;50.130;8.710;2022-11-21T04:48:42;99054.06;;;7.14;82.43
40954;BME280;26686;50.130;8.710;2022-11-21T04:53:43;99053.59;;;7.08;81.84
40954;BME280;26686;50.130;8.710;2022-11-21T04:58:45;99057.13;;;7.09;82.08
40954;BME280;26686;50.130;8.710;2022-11-21T05:03:46;99060.38;;;7.22;82.04
40954;BME280;26686;50.130;8.710;2022-11-21T05:08:47;99046.81;;;7.16;82.11
40954;BME280;26686;50.130;8.710;2022-11-21T05:13:54;99055.91;;;7.23;82.00
40954;BME280;26686;50.130;8.710;2022-11-21T05:18:55;99064.66;;;7.14;81.98
40954;BME280;26686;50.130;8.710;2022-11-21T05:23:56;99055.56;;;7.06;82.42
40954;BME280;26686;50.130;8.710;2022-11-21T05:28:58;99062.59;;;6.96;83.50
40954;BME280;26686;50.130;8.710;2022-11-21T05:33:59;99054.53;;;6.98;83.75
40954;BME280;26686;50.130;8.710;2022-11-21T05:39:01;99055.81;;;7.03;83.64
40954;BME280;26686;50.130;8.710;2022-11-21T05:44:02;99056.03;;;6.90;84.14
40954;BME280;26686;50.130;8.710;2022-11-21T05:49:04;99050.28;;;6.85;84.64
40954;BME280;26686;50.130;8.710;2022-11-21T05:54:05;99060.84;;;6.85;85.13
40954;BME280;26686;50.130;8.710;2022-11-21T05:59:07;99065.97;;;6.98;84.98
40954;BME280;26686;50.130;8.710;2022-11-21T06:04:09;99065.19;;;7.07;84.79
40954;BME280;26686;50.130;8.710;2022-11-21T06:09:10;99066.59;;;7.12;85.81
40954;BME280;26686;50.130;8.710;2022-11-21T06:14:12;99056.16;;;7.10;85.75
40954;BME280;26686;50.130;8.710;2022-11-21T06:19:13;99057.25;;;7.07;86.76
40954;BME280;26686;50.130;8.710;2022-11-21T06:24:14;99047.50;;;6.87;86.31
40954;BME280;26686;50.130;8.710;2022-11-21T06:29:22;99059.03;;;6.86;86.89
40954;BME280;26686;50.130;8.710;2022-11-21T06:34:25;99071.13;;;6.79;86.99
40954;BME280;26686;50.130;8.710;2022-11-21T06:39:27;99070.41;;;6.77;87.02
40954;BME280;26686;50.130;8.710;2022-11-21T06:44:28;99062.84;;;6.93;89.60
40954;BME280;26686;50.130;8.710;2022-11-21T06:49:30;99059.69;;;6.99;87.27
40954;BME280;26686;50.130;8.710;2022-11-21T06:54:31;99075.13;;;6.94;86.03
40954;BME280;26686;50.130;8.710;2022-11-21T06:59:34;99084.00;;;6.93;86.04
40954;BME280;26686;50.130;8.710;2022-11-21T07:04:35;99092.84;;;7.03;86.17
40954;BME280;26686;50.130;8.710;2022-11-21T07:09:36;99100.53;;;7.06;85.88
40954;BME280;26686;50.130;8.710;2022-11-21T07:14:38;99087.19;;;7.08;85.45
40954;BME280;26686;50.130;8.710;2022-11-21T07:19:39;99092.81;;;7.15;85.32
40954;BME280;26686;50.130;8.710;2022-11-21T07:24:41;99092.81;;;7.15;85.23
40954;BME280;26686;50.130;8.710;2022-11-21T07:29:43;99100.63;;;7.16;85.33
40954;BME280;26686;50.130;8.710;2022-11-21T07:34:44;99106.03;;;7.15;84.95
40954;BME280;26686;50.130;8.710;2022-11-21T07:39:45;99114.81;;;7.15;85.09
40954;BME280;26686;50.130;8.710;2022-11-21T07:44:47;99112.19;;;7.25;85.47
40954;BME280;26686;50.130;8.710;2022-11-21T07:49:48;99117.69;;;7.33;85.41
40954;BME280;26686;50.130;8.710;2022-11-21T07:54:49;99117.69;;;7.33;85.17
40954;BME280;26686;50.130;8.710;2022-11-21T07:59:51;99111.88;;;7.39;85.64
40954;BME280;26686;50.130;8.710;2022-11-21T08:04:52;99109.66;;;7.44;85.09
40954;BME280;26686;50.130;8.710;2022-11-21T08:09:54;99121.16;;;7.55;84.57
40954;BME280;26686;50.130;8.710;2022-11-21T08:14:55;99117.97;;;7.61;84.06
40954;BME280;26686;50.130;8.710;2022-11-21T08:19:57;99115.31;;;7.61;83.34
40954;BME280;26686;50.130;8.710;2022-11-21T08:25:00;99115.31;;;7.61;83.08
40954;BME280;26686;50.130;8.710;2022-11-21T08:30:03;99106.28;;;7.64;83.31
40954;BME280;26686;50.130;8.710;2022-11-21T08:35:05;99103.69;;;7.73;82.94
40954;BME280;26686;50.130;8.710;2022-11-21T08:40:07;99103.44;;;7.86;81.25
40954;BME280;26686;50.130;8.710;2022-11-21T08:45:09;99104.25;;;7.77;80.56
40954;BME280;26686;50.130;8.710;2022-11-21T08:50:10;99099.69;;;7.89;79.47
40954;BME280;26686;50.130;8.710;2022-11-21T08:55:11;99098.50;;;8.22;78.05
40954;BME280;26686;50.130;8.710;2022-11-21T09:00:13;99091.97;;;8.26;77.93
40954;BME280;26686;50.130;8.710;2022-11-21T09:05:15;99089.88;;;8.30;77.53
40954;BME280;26686;50.130;8.710;2022-11-21T09:10:16;99089.28;;;8.17;78.01
40954;BME280;26686;50.130;8.710;2022-11-21T09:15:18;99093.34;;;8.21;76.31
40954;BME280;26686;50.130;8.710;2022-11-21T09:20:40;99093.44;;;8.00;78.43
40954;BME280;26686;50.130;8.710;2022-11-21T09:25:43;99102.06;;;7.82;79.89
40954;BME280;26686;50.130;8.710;2022-11-21T09:30:44;99085.97;;;7.74;81.26
40954;BME280;26686;50.130;8.710;2022-11-21T09:35:46;99091.09;;;8.06;81.30
40954;BME280;26686;50.130;8.710;2022-11-21T09:40:48;99090.44;;;8.34;79.65
40954;BME280;26686;50.130;8.710;2022-11-21T09:45:51;99084.91;;;8.66;78.67
40954;BME280;26686;50.130;8.710;2022-11-21T09:51:02;99088.44;;;9.71;74.93
40954;BME280;26686;50.130;8.710;2022-11-21T09:56:12;99087.34;;;10.47;70.38
40954;BME280;26686;50.130;8.710;2022-11-21T10:01:16;99079.16;;;11.03;67.91
40954;BME280;26686;50.130;8.710;2022-11-21T10:06:23;99066.19;;;11.95;65.05
40954;BME280;26686;50.130;8.710;2022-11-21T10:27:52;99036.31;;;18.89;42.78
40954;BME280;26686;50.130;8.710;2022-11-21T10:32:57;99027.75;;;20.11;40.02
40954;BME280;26686;50.130;8.710;2022-11-21T10:38:09;99017.50;;;21.89;35.51
40954;BME280;26686;50.130;8.710;2022-11-21T10:49:01;98996.63;;;18.23;40.19
40954;BME280;26686;50.130;8.710;2022-11-21T10:54:08;98994.13;;;14.37;47.71
40954;BME280;26686;50.130;8.710;2022-11-21T10:59:29;99000.44;;;12.36;53.27
40954;BME280;26686;50.130;8.710;2022-11-21T11:04:31;98994.41;;;12.26;53.96
40954;BME280;26686;50.130;8.710;2022-11-21T11:09:47;98986.03;;;16.46;44.85
40954;BME280;26686;50.130;8.710;2022-11-21T11:14:51;98968.88;;;15.67;45.40
40954;BME280;26686;50.130;8.710;2022-11-21T11:20:04;98973.63;;;14.91;46.16
40954;BME280;26686;50.130;8.710;2022-11-21T11:25:08;98953.56;;;13.39;50.20
40954;BME280;26686;50.130;8.710;2022-11-21T11:30:14;98955.91;;;12.29;52.62
40954;BME280;26686;50.130;8.710;2022-11-21T11:45:52;98941.91;;;10.82;58.22
40954;BME280;26686;50.130;8.710;2022-11-21T11:51:39;98927.41;;;10.50;59.88
40954;BME280;26686;50.130;8.710;2022-11-21T11:56:42;98923.41;;;10.10;60.50
40954;BME280;26686;50.130;8.710;2022-11-21T12:02:09;98923.19;;;9.85;61.80
40954;BME280;26686;50.130;8.710;2022-11-21T12:07:55;98914.44;;;9.75;62.40
40954;BME280;26686;50.130;8.710;2022-11-21T12:13:13;98909.56;;;10.95;58.05
40954;BME280;26686;50.130;8.710;2022-11-21T12:23:21;98880.66;;;10.30;58.93
40954;BME280;26686;50.130;8.710;2022-11-21T12:28:37;98875.34;;;10.74;58.14
40954;BME280;26686;50.130;8.710;2022-11-21T12:34:01;98862.38;;;12.14;55.33
40954;BME280;26686;50.130;8.710;2022-11-21T12:39:28;98843.19;;;16.92;42.52
40954;BME280;26686;50.130;8.710;2022-11-21T12:55:27;98842.78;;;21.68;31.65
40954;BME280;26686;50.130;8.710;2022-11-21T13:01:00;98828.13;;;19.77;33.19
40954;BME280;26686;50.130;8.710;2022-11-21T13:06:04;98812.72;;;19.46;34.79
40954;BME280;26686;50.130;8.710;2022-11-21T13:27:39;98780.94;;;22.19;29.43
40954;BME280;26686;50.130;8.710;2022-11-21T13:32:43;98774.97;;;18.94;34.46
40954;BME280;26686;50.130;8.710;2022-11-21T13:53:37;98755.03;;;13.22;46.62
40954;BME280;26686;50.130;8.710;2022-11-21T13:58:55;98743.06;;;12.87;47.05
40954;BME280;26686;50.130;8.710;2022-11-21T14:09:46;98729.22;;;12.04;47.79
40954;BME280;26686;50.130;8.710;2022-11-21T14:15:07;98724.03;;;11.78;49.77
40954;BME280;26686;50.130;8.710;2022-11-21T14:20:17;98714.72;;;11.74;50.54
40954;BME280;26686;50.130;8.710;2022-11-21T14:25:32;98699.91;;;11.71;50.23
40954;BME280;26686;50.130;8.710;2022-11-21T14:30:36;98682.41;;;11.68;50.75
40954;BME280;26686;50.130;8.710;2022-11-21T14:35:38;98668.13;;;11.37;51.06
40954;BME280;26686;50.130;8.710;2022-11-21T14:40:39;98677.59;;;11.06;53.66
40954;BME280;26686;50.130;8.710;2022-11-21T14:45:47;98680.72;;;10.77;53.31
40954;BME280;26686;50.130;8.710;2022-11-21T14:50:49;98670.66;;;10.46;54.36
40954;BME280;26686;50.130;8.710;2022-11-21T14:55:50;98672.06;;;10.24;56.11
40954;BME280;26686;50.130;8.710;2022-11-21T15:01:03;98675.78;;;10.05;56.87
40954;BME280;26686;50.130;8.710;2022-11-21T15:06:09;98660.41;;;9.90;58.49
40954;BME280;26686;50.130;8.710;2022-11-21T15:11:11;98660.88;;;9.78;58.53
40954;BME280;26686;50.130;8.710;2022-11-21T15:16:14;98648.63;;;9.59;59.33
40954;BME280;26686;50.130;8.710;2022-11-21T15:21:15;98626.59;;;9.40;59.45
40954;BME280;26686;50.130;8.710;2022-11-21T15:26:30;98609.53;;;9.25;60.19
40954;BME280;26686;50.130;8.710;2022-11-21T15:31:32;98592.22;;;9.12;62.44
40954;BME280;26686;50.130;8.710;2022-11-21T15:36:33;98589.50;;;9.04;62.32
40954;BME280;26686;50.130;8.710;2022-11-21T15:41:35;98581.78;;;8.93;62.25
40954;BME280;26686;50.130;8.710;2022-11-21T15:46:37;98573.53;;;8.78;62.38
40954;BME280;26686;50.130;8.710;2022-11-21T15:51:44;98551.56;;;8.67;63.23
40954;BME280;26686;50.130;8.710;2022-11-21T15:57:07;98532.09;;;8.59;63.40
40954;BME280;26686;50.130;8.710;2022-11-21T16:02:11;98529.91;;;8.54;64.05
40954;BME280;26686;50.130;8.710;2022-11-21T16:07:13;98518.25;;;8.47;64.37
40954;BME280;26686;50.130;8.710;2022-11-21T16:12:14;98503.50;;;8.35;64.95
40954;BME280;26686;50.130;8.710;2022-11-21T16:17:16;98483.06;;;8.27;65.54
40954;BME280;26686;50.130;8.710;2022-11-21T16:22:17;98481.72;;;8.23;66.12
40954;BME280;26686;50.130;8.710;2022-11-21T16:27:19;98477.69;;;8.19;67.27
40954;BME280;26686;50.130;8.710;2022-11-21T16:32:20;98469.34;;;8.13;67.78
40954;BME280;26686;50.130;8.710;2022-11-21T16:37:21;98462.72;;;8.09;67.70
40954;BME280;26686;50.130;8.710;2022-11-21T16:42:23;98443.75;;;8.04;67.98
40954;BME280;26686;50.130;8.710;2022-11-21T16:47:24;98441.06;;;7.96;68.39
40954;BME280;26686;50.130;8.710;2022-11-21T16:52:25;98419.09;;;7.86;68.83
40954;BME280;26686;50.130;8.710;2022-11-21T16:57:27;98410.75;;;7.81;69.30
40954;BME280;26686;50.130;8.710;2022-11-21T17:02:28;98392.66;;;7.76;70.30
40954;BME280;26686;50.130;8.710;2022-11-21T17:07:31;98397.91;;;7.68;70.34
40954;BME280;26686;50.130;8.710;2022-11-21T17:12:37;98402.69;;;7.64;71.02
40954;BME280;26686;50.130;8.710;2022-11-21T17:17:41;98416.88;;;7.63;71.44
40954;BME280;26686;50.130;8.710;2022-11-21T17:22:43;98414.53;;;7.60;72.19
40954;BME280;26686;50.130;8.710;2022-11-21T17:27:44;98390.00;;;7.58;71.44
40954;BME280;26686;50.130;8.710;2022-11-21T17:32:47;98395.56;;;7.65;71.39
40954;BME280;26686;50.130;8.710;2022-11-21T17:37:48;98394.84;;;7.63;71.55
40954;BME280;26686;50.130;8.710;2022-11-21T17:42:50;98380.94;;;7.60;71.38
40954;BME280;26686;50.130;8.710;2022-11-21T17:47:51;98375.75;;;7.69;71.11
40954;BME280;26686;50.130;8.710;2022-11-21T17:52:52;98374.38;;;7.65;71.37
40954;BME280;26686;50.130;8.710;2022-11-21T17:57:54;98367.94;;;7.67;71.10
40954;BME280;26686;50.130;8.710;2022-11-21T18:02:55;98364.91;;;7.62;71.45
40954;BME280;26686;50.130;8.710;2022-11-21T18:07:57;98364.28;;;7.68;70.92
40954;BME280;26686;50.130;8.710;2022-11-21T18:12:58;98355.97;;;7.63;71.46
40954;BME280;26686;50.130;8.710;2022-11-21T18:18:00;98337.91;;;7.58;71.25
40954;BME280;26686;50.130;8.710;2022-11-21T18:23:01;98351.28;;;7.57;71.42
40954;BME280;26686;50.130;8.710;2022-11-21T18:28:04;98358.84;;;7.52;71.68
40954;BME280;26686;50.130;8.710;2022-11-21T18:33:05;98348.56;;;7.49;71.93
40954;BME280;26686;50.130;8.710;2022-11-21T18:38:07;98347.44;;;7.51;71.59
40954;BME280;26686;50.130;8.710;2022-11-21T18:43:08;98360.50;;;7.53;71.21
40954;BME280;26686;50.130;8.710;2022-11-21T18:48:11;98361.13;;;7.47;71.59
40954;BME280;26686;50.130;8.710;2022-11-21T18:53:12;98375.78;;;7.59;71.29
40954;BME280;26686;50.130;8.710;2022-11-21T18:58:14;98373.28;;;7.57;71.25
40954;BME280;26686;50.130;8.710;2022-11-21T19:03:15;98366.88;;;7.60;71.55
40954;BME280;26686;50.130;8.710;2022-11-21T19:08:19;98363.53;;;7.58;71.74
40954;BME280;26686;50.130;8.710;2022-11-21T19:13:21;98344.63;;;7.53;71.99
40954;BME280;26686;50.130;8.710;2022-11-21T19:18:22;98348.19;;;7.61;71.78
40954;BME280;26686;50.130;8.710;2022-11-21T19:23:23;98339.13;;;7.64;71.88
40954;BME280;26686;50.130;8.710;2022-11-21T19:28:26;98339.34;;;7.53;71.57
40954;BME280;26686;50.130;8.710;2022-11-21T19:33:30;98330.78;;;7.41;72.07
40954;BME280;26686;50.130;8.710;2022-11-21T19:38:32;98323.28;;;7.36;72.63
40954;BME280;26686;50.130;8.710;2022-11-21T19:43:34;98304.91;;;7.35;72.55
40954;BME280;26686;50.130;8.710;2022-11-21T19:48:35;98303.47;;;7.40;72.26
40954;BME280;26686;50.130;8.710;2022-11-21T19:53:37;98287.59;;;7.40;72.28
40954;BME280;26686;50.130;8.710;2022-11-21T19:58:40;98296.81;;;7.36;72.52
40954;BME280;26686;50.130;8.710;2022-11-21T20:03:43;98288.22;;;7.34;72.48
40954;BME280;26686;50.130;8.710;2022-11-21T20:08:56;98283.22;;;7.31;72.88
40954;BME280;26686;50.130;8.710;2022-11-21T20:13:58;98274.28;;;7.32;72.68
40954;BME280;26686;50.130;8.710;2022-11-21T20:19:04;98271.03;;;7.38;72.62
40954;BME280;26686;50.130;8.710;2022-11-21T20:24:07;98256.16;;;7.37;71.96
40954;BME280;26686;50.130;8.710;2022-11-21T20:29:11;98244.41;;;7.40;72.25
40954;BME280;26686;50.130;8.710;2022-11-21T20:34:13;98245.91;;;7.42;72.18
40954;BME280;26686;50.130;8.710;2022-11-21T20:39:16;98241.59;;;7.41;71.73
40954;BME280;26686;50.130;8.710;2022-11-21T20:44:19;98223.75;;;7.43;71.58
40954;BME280;26686;50.130;8.710;2022-11-21T20:49:41;98226.09;;;7.47;71.39
40954;BME280;26686;50.130;8.710;2022-11-21T20:54:42;98232.31;;;7.55;71.44
40954;BME280;26686;50.130;8.710;2022-11-21T20:59:44;98214.22;;;7.51;71.25
40954;BME280;26686;50.130;8.710;2022-11-21T21:04:45;98216.25;;;7.57;70.76
40954;BME280;26686;50.130;8.710;2022-11-21T21:09:47;98217.75;;;7.59;70.67
40954;BME280;26686;50.130;8.710;2022-11-21T21:14:48;98206.34;;;7.59;70.42
40954;BME280;26686;50.130;8.710;2022-11-21T21:19:49;98196.38;;;7.53;71.21
40954;BME280;26686;50.130;8.710;2022-11-21T21:24:51;98209.97;;;7.58;71.50
40954;BME280;26686;50.130;8.710;2022-11-21T21:29:52;98220.66;;;7.48;72.04
40954;BME280;26686;50.130;8.710;2022-11-21T21:34:53;98208.69;;;7.44;72.58
40954;BME280;26686;50.130;8.710;2022-11-21T21:39:55;98203.19;;;7.37;73.63
40954;BME280;26686;50.130;8.710;2022-11-21T21:44:56;98196.84;;;7.30;74.75
40954;BME280;26686;50.130;8.710;2022-11-21T21:49:57;98182.66;;;7.31;75.60
40954;BME280;26686;50.130;8.710;2022-11-21T21:54:59;98177.03;;;7.34;76.49
40954;BME280;26686;50.130;8.710;2022-11-21T22:00:00;98166.31;;;7.36;76.82
40954;BME280;26686;50.130;8.710;2022-11-21T22:05:01;98173.69;;;7.32;77.18
40954;BME280;26686;50.130;8.710;2022-11-21T22:10:03;98157.94;;;7.22;77.60
40954;BME280;26686;50.130;8.710;2022-11-21T22:15:06;98152.25;;;7.17;77.77
40954;BME280;26686;50.130;8.710;2022-11-21T22:20:08;98168.06;;;7.27;78.25
40954;BME280;26686;50.130;8.710;2022-11-21T22:25:09;98161.41;;;7.23;77.63
40954;BME280;26686;50.130;8.710;2022-11-21T22:30:11;98174.63;;;7.23;77.37
40954;BME280;26686;50.130;8.710;2022-11-21T22:35:14;98179.56;;;7.18;78.12
40954;BME280;26686;50.130;8.710;2022-11-21T22:40:17;98169.59;;;7.12;78.72
40954;BME280;26686;50.130;8.710;2022-11-21T22:45:18;98171.47;;;7.19;79.53
40954;BME280;26686;50.130;8.710;2022-11-21T22:50:19;98169.63;;;7.20;79.70
40954;BME280;26686;50.130;8.710;2022-11-21T22:55:21;98178.19;;;7.14;79.71
40954;BME280;26686;50.130;8.710;2022-11-21T23:00:22;98166.25;;;7.10;80.17
40954;BME280;26686;50.130;8.710;2022-11-21T23:05:24;98165.56;;;7.07;80.48
40954;BME280;26686;50.130;8.710;2022-11-21T23:10:25;98161.94;;;7.08;80.63
40954;BME280;26686;50.130;8.710;2022-11-21T23:15:26;98149.69;;;7.07;80.77
40954;BME280;26686;50.130;8.710;2022-11-21T23:20:28;98137.13;;;7.10;81.52
40954;BME280;26686;50.130;8.710;2022-11-21T23:25:29;98131.53;;;7.13;81.54
40954;BME280;26686;50.130;8.710;2022-11-21T23:30:30;98133.53;;;7.11;81.76
40954;BME280;26686;50.130;8.710;2022-11-21T23:35:32;98127.25;;;7.12;82.21
40954;BME280;26686;50.130;8.710;2022-11-21T23:40:33;98130.19;;;7.08;82.00
40954;BME280;26686;50.130;8.710;2022-11-21T23:45:34;98124.53;;;7.03;82.41
40954;BME280;26686;50.130;8.710;2022-11-21T23:50:36;98124.88;;;7.08;82.69
40954;BME280;26686;50.130;8.710;2022-11-21T23:55:37;98107.69;;;7.04;82.93
